Time;durP1;ratioP1;P1;durP2;ratioP2;P2;SDS_P1;SDS_P2;PMS_P1;PMS_P2;Temp;Humidity;BMP_temperature;BMP_pressure;BME280_temperature;BME280_humidity;BME280_pressure;Samples;Min_cycle;Max_cycle;Signal;HPM_P1;HPM_P2
2021/06/07 00:00:20;;;;;;;4.45;2.83;;;;;;;16.77;46.22;101323.34;5112576;28;20152;-81
2021/06/07 00:02:48;;;;;;;5.85;3.17;;;;;;;16.73;46.97;101311.25;5078300;28;20105;-78
2021/06/07 00:05:16;;;;;;;8.23;3.40;;;;;;;16.77;46.68;101320.69;5091741;28;20126;-78
2021/06/07 00:07:44;;;;;;;5.13;3.20;;;;;;;16.72;46.90;101313.06;5078052;28;20066;-79
2021/06/07 00:10:12;;;;;;;7.13;3.30;;;;;;;16.65;47.01;101317.91;5074164;28;20151;-79
2021/06/07 00:12:40;;;;;;;8.27;3.40;;;;;;;16.55;47.36;101318.72;5107532;28;20151;-79
2021/06/07 00:15:10;;;;;;;6.28;3.55;;;;;;;16.50;47.48;101312.91;5108631;28;20423;-78
2021/06/07 00:17:39;;;;;;;7.43;3.20;;;;;;;16.36;47.98;101313.91;5061061;28;20063;-79
2021/06/07 00:20:12;;;;;;;11.98;3.85;;;;;;;16.41;47.78;101306.44;5077338;28;20356;-82
2021/06/07 00:22:39;;;;;;;7.95;3.50;;;;;;;16.31;48.56;101308.91;5094278;28;20726;-78
2021/06/07 00:25:08;;;;;;;12.65;3.33;;;;;;;16.40;48.30;101313.56;5094133;28;20039;-80
2021/06/07 00:27:36;;;;;;;7.85;4.03;;;;;;;16.37;48.16;101311.13;5111357;28;20269;-78
2021/06/07 00:30:05;;;;;;;3.03;2.70;;;;;;;16.16;48.80;101302.88;5111904;28;20521;-78
2021/06/07 00:32:32;;;;;;;7.07;2.90;;;;;;;16.20;49.02;101308.81;5093688;28;20048;-79
2021/06/07 00:34:59;;;;;;;4.15;2.70;;;;;;;16.12;49.17;101303.19;5082364;28;20091;-78
2021/06/07 00:37:27;;;;;;;3.85;3.08;;;;;;;16.04;49.89;101309.09;5093949;28;20146;-78
2021/06/07 00:39:54;;;;;;;10.88;3.53;;;;;;;15.98;49.65;101314.81;5077496;28;20083;-78
2021/06/07 00:42:21;;;;;;;9.50;3.72;;;;;;;15.92;49.95;101313.44;5077114;28;20515;-78
2021/06/07 00:44:49;;;;;;;5.75;3.33;;;;;;;16.06;49.81;101312.47;5093764;28;20046;-80
2021/06/07 00:47:17;;;;;;;5.55;3.08;;;;;;;15.98;50.18;101319.28;5077757;28;20061;-79
2021/06/07 00:49:44;;;;;;;8.07;3.30;;;;;;;15.95;50.31;101317.69;5077291;28;20047;-79
2021/06/07 00:52:11;;;;;;;6.38;3.28;;;;;;;15.89;50.74;101318.97;5094019;28;20062;-78
2021/06/07 00:54:38;;;;;;;6.32;3.50;;;;;;;15.77;51.04;101313.69;5088423;28;20058;-77
2021/06/07 00:57:06;;;;;;;8.90;3.55;;;;;;;15.79;51.48;101311.75;5111643;28;20043;-78
2021/06/07 00:59:33;;;;;;;6.72;3.20;;;;;;;15.76;51.54;101317.25;5076855;28;20141;-78
2021/06/07 01:02:00;;;;;;;13.30;7.50;;;;;;;15.48;52.56;101313.84;5076277;28;20036;-78
2021/06/07 01:04:27;;;;;;;4.43;3.38;;;;;;;15.49;52.92;101309.38;5071710;28;20058;-79
2021/06/07 01:06:54;;;;;;;9.63;3.90;;;;;;;15.36;53.22;101310.25;5089496;28;20496;-78
2021/06/07 01:09:22;;;;;;;7.55;4.32;;;;;;;15.38;53.48;101316.28;5094610;28;20090;-77
2021/06/07 01:11:49;;;;;;;5.18;3.95;;;;;;;15.31;53.70;101312.34;5111444;28;20139;-81
2021/06/07 01:14:16;;;;;;;5.15;3.92;;;;;;;15.37;53.76;101319.88;5069524;28;20043;-76
2021/06/07 01:16:43;;;;;;;7.40;4.13;;;;;;;15.15;54.47;101307.22;5093156;28;20138;-81
2021/06/07 01:19:11;;;;;;;8.00;4.50;;;;;;;15.08;54.91;101305.06;5093235;28;20131;-77
2021/06/07 01:21:38;;;;;;;6.57;4.60;;;;;;;15.07;55.21;101317.50;5093991;28;20391;-82
2021/06/07 01:24:06;;;;;;;5.03;4.03;;;;;;;15.13;55.31;101311.78;5105325;28;20498;-79
2021/06/07 01:26:33;;;;;;;5.72;3.70;;;;;;;15.08;55.39;101308.56;5093366;28;20405;-79
2021/06/07 01:29:00;;;;;;;7.75;3.60;;;;;;;14.99;55.89;101314.50;5089512;28;20056;-78
2021/06/07 01:31:28;;;;;;;10.85;4.72;;;;;;;15.07;55.80;101304.22;5109887;28;20402;-79
2021/06/07 01:33:55;;;;;;;6.40;3.70;;;;;;;14.96;56.29;101308.56;5092589;28;20595;-77
2021/06/07 01:36:23;;;;;;;7.30;3.90;;;;;;;14.87;56.47;101300.25;5110637;28;20440;-80
2021/06/07 01:38:51;;;;;;;8.00;3.90;;;;;;;14.82;57.06;101314.78;5092178;28;20075;-79
2021/06/07 01:41:19;;;;;;;4.60;3.60;;;;;;;14.89;56.62;101308.94;5074595;28;20465;-78
2021/06/07 01:43:46;;;;;;;9.10;3.40;;;;;;;14.79;57.13;101307.03;5109444;28;20050;-77
2021/06/07 01:46:14;;;;;;;18.30;4.22;;;;;;;14.85;56.97;101315.41;5109384;28;20054;-76
2021/06/07 01:48:41;;;;;;;9.45;3.50;;;;;;;14.83;57.01;101303.22;5110332;28;20092;-77
2021/06/07 01:51:09;;;;;;;5.93;3.45;;;;;;;14.69;57.38;101304.13;5091258;28;20067;-80
2021/06/07 01:53:37;;;;;;;7.55;4.20;;;;;;;14.64;57.79;101308.88;5091493;28;20060;-77
2021/06/07 01:56:08;;;;;;;8.00;3.10;;;;;;;14.51;58.50;101305.31;5067886;28;20142;-76
2021/06/07 01:58:36;;;;;;;8.85;3.53;;;;;;;14.52;58.62;101307.88;5092336;28;20165;-78
2021/06/07 02:01:08;;;;;;;10.32;4.10;;;;;;;14.56;58.41;101309.38;5091717;28;20126;-78
2021/06/07 02:03:35;;;;;;;4.50;3.50;;;;;;;14.50;58.79;101303.59;5075155;28;20055;-79
2021/06/07 02:06:05;;;;;;;6.97;4.28;;;;;;;14.55;58.33;101302.38;5076013;28;20047;-78
2021/06/07 02:08:32;;;;;;;6.50;3.80;;;;;;;14.46;58.83;101304.75;5075481;28;20056;-78
2021/06/07 02:11:15;;;;;;;11.35;3.78;;;;;;;14.53;58.53;101309.56;5076413;28;20069;-78
2021/06/07 02:13:47;;;;;;;7.47;4.10;;;;;;;14.38;58.68;101305.22;5085040;28;20052;-78
2021/06/07 02:16:17;;;;;;;6.82;3.78;;;;;;;14.44;58.77;101310.13;5092146;28;20044;-78
2021/06/07 02:18:44;;;;;;;9.25;4.35;;;;;;;14.29;59.41;101303.16;5075052;28;20220;-78
2021/06/07 02:21:13;;;;;;;4.47;3.33;;;;;;;14.38;59.48;101305.22;5087744;28;20167;-81
2021/06/07 02:23:40;;;;;;;8.65;4.22;;;;;;;14.21;59.64;101308.09;5092775;28;20151;-79
2021/06/07 02:26:07;;;;;;;11.07;4.78;;;;;;;14.16;60.88;101311.03;5076225;28;20134;-78
2021/06/07 02:28:36;;;;;;;7.10;3.58;;;;;;;14.12;60.66;101318.31;5079455;28;20158;-77
2021/06/07 02:31:04;;;;;;;5.05;3.83;;;;;;;14.06;60.93;101310.75;5091473;28;20156;-79
2021/06/07 02:33:32;;;;;;;6.93;4.18;;;;;;;14.04;61.00;101312.63;5091810;28;20047;-77
2021/06/07 02:35:59;;;;;;;6.75;4.07;;;;;;;14.04;61.06;101320.56;5092142;28;20067;-79
2021/06/07 02:38:26;;;;;;;7.90;4.00;;;;;;;14.03;60.91;101313.59;5089507;28;20135;-79
2021/06/07 02:40:53;;;;;;;14.10;4.50;;;;;;;13.86;62.04;101311.97;5091230;28;20070;-79
2021/06/07 02:43:21;;;;;;;10.20;4.47;;;;;;;13.84;62.33;101313.03;5109697;28;20117;-79
2021/06/07 02:45:48;;;;;;;8.25;4.22;;;;;;;13.72;62.52;101313.78;5091580;28;20096;-79
2021/06/07 02:48:16;;;;;;;5.28;4.20;;;;;;;13.80;62.54;101319.47;5086923;28;20467;-78
2021/06/07 02:50:46;;;;;;;5.38;3.78;;;;;;;13.76;62.51;101318.78;5109446;28;20040;-79
2021/06/07 02:53:16;;;;;;;8.02;3.38;;;;;;;13.70;62.91;101319.19;5079791;28;20526;-83
2021/06/07 02:55:52;;;;;;;7.15;3.85;;;;;;;13.66;63.44;101318.50;5097407;28;20035;-80
2021/06/07 02:58:21;;;;;;;6.75;3.65;;;;;;;13.77;63.36;101319.63;5096662;28;20036;-78
2021/06/07 03:00:51;;;;;;;6.18;3.97;;;;;;;13.72;63.12;101319.06;5095425;28;20492;-81
2021/06/07 03:03:19;;;;;;;10.82;4.15;;;;;;;13.73;63.23;101323.41;5096002;28;20052;-78
2021/06/07 03:05:48;;;;;;;7.95;3.70;;;;;;;13.78;63.36;101322.22;5111890;28;20073;-77
2021/06/07 03:08:18;;;;;;;6.03;3.75;;;;;;;13.69;63.99;101317.47;5095390;28;20075;-80
2021/06/07 03:10:48;;;;;;;9.88;3.47;;;;;;;13.74;63.62;101315.41;5113363;28;20052;-78
2021/06/07 03:13:17;;;;;;;7.45;3.72;;;;;;;13.79;63.59;101317.75;5079517;28;20047;-78
2021/06/07 03:15:44;;;;;;;13.75;5.72;;;;;;;13.76;63.70;101312.66;5077781;28;20048;-81
2021/06/07 03:18:12;;;;;;;10.10;4.32;;;;;;;13.77;63.96;101315.19;5072986;28;20117;-76
2021/06/07 03:20:39;;;;;;;8.30;3.42;;;;;;;13.84;63.60;101313.88;5099613;28;20119;-77
2021/06/07 03:23:12;;;;;;;7.60;3.80;;;;;;;13.84;63.75;101321.81;5101650;28;20143;-81
2021/06/07 03:25:41;;;;;;;6.95;4.03;;;;;;;13.83;64.10;101309.53;5094254;28;20077;-78
2021/06/07 03:28:09;;;;;;;11.13;4.55;;;;;;;13.88;63.84;101320.69;5111525;28;20043;-78
2021/06/07 03:30:36;;;;;;;5.60;4.03;;;;;;;13.96;63.63;101324.66;5095704;28;20044;-78
2021/06/07 03:33:05;;;;;;;7.45;3.70;;;;;;;13.84;63.92;101321.81;5078865;28;20127;-79
2021/06/07 03:35:35;;;;;;;6.22;4.50;;;;;;;13.94;63.96;101316.81;5078984;28;20055;-79
2021/06/07 03:38:03;;;;;;;8.23;4.50;;;;;;;13.98;63.70;101322.78;5096190;28;20054;-82
2021/06/07 03:40:32;;;;;;;7.47;4.22;;;;;;;13.95;63.96;101329.09;5113370;28;20055;-79
2021/06/07 03:42:59;;;;;;;8.85;3.75;;;;;;;13.98;63.60;101322.78;5107428;28;20040;-79
2021/06/07 03:45:27;;;;;;;7.97;4.00;;;;;;;14.06;63.29;101320.50;5096029;28;20047;-77
2021/06/07 03:47:55;;;;;;;6.10;4.00;;;;;;;14.29;63.33;101325.19;5095008;28;20052;-79
2021/06/07 03:50:25;;;;;;;8.57;4.15;;;;;;;14.23;63.23;101332.66;5094095;28;20042;-81
2021/06/07 03:52:52;;;;;;;8.77;3.90;;;;;;;14.34;62.54;101330.19;5094851;28;20340;-77
2021/06/07 03:55:21;;;;;;;9.23;3.75;;;;;;;14.39;62.91;101328.09;5070220;28;20093;-77
2021/06/07 03:57:50;;;;;;;8.13;4.22;;;;;;;14.46;62.59;101325.94;5073061;28;20507;-78
2021/06/07 04:00:20;;;;;;;6.15;4.60;;;;;;;14.48;62.67;101327.56;5088758;28;20059;-77
2021/06/07 04:02:47;;;;;;;7.30;4.05;;;;;;;14.69;61.68;101320.88;5079686;28;20063;-79
2021/06/07 04:05:15;;;;;;;7.03;4.00;;;;;;;14.81;61.20;101321.84;5079763;28;20044;-79
2021/06/07 04:07:42;;;;;;;6.20;3.70;;;;;;;14.77;61.60;101323.03;5094700;28;20205;-78
2021/06/07 04:10:13;;;;;;;8.13;3.92;;;;;;;14.88;61.22;101324.97;5108787;28;20515;-79
2021/06/07 04:12:40;;;;;;;7.03;3.88;;;;;;;14.84;61.22;101326.13;5095834;28;20054;-81
2021/06/07 04:15:09;;;;;;;7.30;3.83;;;;;;;14.96;61.47;101335.09;5112485;28;20043;-78
2021/06/07 04:17:37;;;;;;;6.88;3.83;;;;;;;15.19;60.50;101323.78;5093588;28;20126;-79
2021/06/07 04:20:06;;;;;;;9.10;4.35;;;;;;;15.15;60.73;101335.56;5094716;28;20087;-78
2021/06/07 04:22:33;;;;;;;8.98;3.65;;;;;;;15.36;60.26;101334.13;5106239;28;20471;-81
2021/06/07 04:25:01;;;;;;;5.18;4.22;;;;;;;15.71;59.13;101330.84;5094366;28;20063;-80
2021/06/07 04:27:28;;;;;;;11.45;3.58;;;;;;;16.23;57.71;101334.34;5093390;28;20079;-79
2021/06/07 04:29:55;;;;;;;8.52;4.05;;;;;;;17.62;53.58;101339.97;5112768;28;20043;-80
2021/06/07 04:32:23;;;;;;;10.30;4.22;;;;;;;18.60;51.17;101335.72;5110622;28;20062;-80
2021/06/07 04:34:51;;;;;;;6.53;3.63;;;;;;;19.51;47.76;101337.06;5072532;28;20138;-79
2021/06/07 04:37:18;;;;;;;8.15;3.35;;;;;;;19.84;46.76;101338.69;5099989;28;20162;-76
2021/06/07 04:39:45;;;;;;;9.07;3.70;;;;;;;20.34;45.33;101327.19;5092467;28;20044;-80
2021/06/07 04:42:12;;;;;;;7.82;3.55;;;;;;;21.82;42.39;101331.47;5094151;28;20048;-84
2021/06/07 04:44:40;;;;;;;6.50;4.35;;;;;;;22.36;40.93;101335.19;5092335;28;20368;-82
2021/06/07 04:47:07;;;;;;;9.82;3.53;;;;;;;22.40;40.86;101334.75;5072923;28;20101;-76
2021/06/07 04:49:34;;;;;;;5.78;3.28;;;;;;;23.97;37.52;101325.19;5109319;28;20056;-77
2021/06/07 04:52:02;;;;;;;7.55;3.80;;;;;;;24.45;35.96;101331.78;5089741;28;20086;-76
2021/06/07 04:54:29;;;;;;;8.05;3.42;;;;;;;23.45;37.71;101326.03;5088649;28;20135;-81
2021/06/07 04:56:56;;;;;;;4.32;2.85;;;;;;;23.16;38.29;101328.16;5077234;28;20124;-77
2021/06/07 04:59:27;;;;;;;9.85;3.55;;;;;;;22.36;39.40;101335.19;5106046;28;20039;-79
2021/06/07 05:01:56;;;;;;;5.82;2.90;;;;;;;23.06;37.86;101333.63;5089653;28;20067;-77
2021/06/07 05:04:23;;;;;;;7.85;3.05;;;;;;;22.68;38.89;101335.56;5094901;28;20459;-79
2021/06/07 05:06:50;;;;;;;8.15;3.33;;;;;;;23.67;36.78;101331.91;5092162;28;20104;-78
2021/06/07 05:09:18;;;;;;;6.45;3.10;;;;;;;25.03;34.33;101330.88;5058627;28;20050;-78
2021/06/07 05:11:45;;;;;;;3.65;2.80;;;;;;;26.82;30.87;101324.16;5086730;28;20075;-79
2021/06/07 05:14:12;;;;;;;7.93;3.00;;;;;;;26.06;32.13;101328.41;5075810;28;20072;-76
2021/06/07 05:16:43;;;;;;;6.18;3.10;;;;;;;25.59;33.27;101322.97;5110182;28;20094;-76
2021/06/07 05:19:10;;;;;;;6.22;3.10;;;;;;;25.01;34.56;101330.22;5068936;28;20036;-78
2021/06/07 05:21:38;;;;;;;7.13;3.35;;;;;;;26.34;32.34;101333.34;5073919;28;20369;-78
2021/06/07 05:24:05;;;;;;;11.50;3.03;;;;;;;25.92;32.47;101334.53;5088116;28;20051;-81
2021/06/07 05:26:33;;;;;;;9.75;3.05;;;;;;;25.17;33.69;101334.78;5085840;28;20199;-79
2021/06/07 05:29:00;;;;;;;11.50;2.83;;;;;;;25.16;33.56;101336.66;5069441;28;20148;-78
2021/06/07 05:31:27;;;;;;;8.93;2.85;;;;;;;25.15;34.08;101337.66;5092546;28;20050;-82
2021/06/07 05:33:55;;;;;;;10.52;2.80;;;;;;;27.07;30.85;101337.50;5068607;28;20132;-79
2021/06/07 05:36:22;;;;;;;7.07;3.20;;;;;;;29.06;27.95;101340.28;5074069;28;20056;-78
2021/06/07 05:38:49;;;;;;;10.30;2.85;;;;;;;28.47;28.33;101338.59;5100731;28;20498;-79
2021/06/07 05:41:17;;;;;;;8.32;2.72;;;;;;;28.08;28.10;101339.72;5096115;28;20097;-79
2021/06/07 05:43:44;;;;;;;6.45;3.28;;;;;;;29.46;26.38;101341.47;5091177;28;20174;-78
2021/06/07 05:46:11;;;;;;;5.65;2.67;;;;;;;29.19;26.77;101354.78;5067303;28;20572;-81
2021/06/07 05:48:39;;;;;;;7.90;4.20;;;;;;;25.88;30.68;101358.31;5073368;28;20044;-80
2021/06/07 05:51:06;;;;;;;10.05;3.33;;;;;;;26.93;30.11;101358.88;5104048;28;20052;-84
2021/06/07 05:53:33;;;;;;;7.82;2.90;;;;;;;26.96;29.75;101358.50;5091887;28;20059;-83
2021/06/07 05:56:04;;;;;;;5.78;2.50;;;;;;;27.99;27.85;101359.81;5090866;28;20111;-85
2021/06/07 05:58:31;;;;;;;6.03;2.45;;;;;;;27.65;28.04;101358.47;5112452;28;20062;-84
2021/06/07 06:00:59;;;;;;;10.48;3.13;;;;;;;26.57;30.18;101374.81;5076417;28;20098;-82
2021/06/07 06:03:27;;;;;;;6.70;2.95;;;;;;;27.46;28.86;101358.97;5094435;28;20508;-83
2021/06/07 06:05:54;;;;;;;5.65;3.00;;;;;;;29.64;25.95;101357.28;5096690;28;20110;-83
2021/06/07 06:08:22;;;;;;;7.32;3.20;;;;;;;28.61;26.89;101366.69;5082264;28;20044;-82
2021/06/07 06:10:49;;;;;;;8.27;3.67;;;;;;;26.94;29.34;101370.53;5118638;28;20151;-80
2021/06/07 06:13:36;;;;;;;5.13;3.00;;;;;;;29.64;25.66;101365.41;5093721;28;20134;-81
2021/06/07 06:16:04;;;;;;;14.25;3.45;;;;;;;29.09;26.74;101356.13;5087674;28;20047;-80
2021/06/07 06:18:31;;;;;;;9.95;3.33;;;;;;;29.08;26.48;101368.03;5084754;28;20532;-82
2021/06/07 06:20:58;;;;;;;10.93;2.95;;;;;;;29.08;26.64;101366.16;5081159;28;20054;-79
2021/06/07 06:23:25;;;;;;;4.07;2.63;;;;;;;28.92;26.67;101369.09;5105759;28;20403;-82
2021/06/07 06:25:53;;;;;;;5.20;2.63;;;;;;;30.29;25.10;101360.59;5085925;28;20079;-80
2021/06/07 06:28:20;;;;;;;7.28;2.78;;;;;;;29.90;25.16;101362.88;5098842;28;20492;-81
2021/06/07 06:30:47;;;;;;;7.15;2.72;;;;;;;29.26;26.07;101368.41;5098577;28;20787;-81
2021/06/07 06:33:15;;;;;;;8.13;3.05;;;;;;;28.23;27.84;101358.66;5099192;28;20067;-81
2021/06/07 06:35:42;;;;;;;6.30;3.00;;;;;;;29.13;27.08;101366.41;5086755;28;20542;-81
2021/06/07 06:38:10;;;;;;;11.52;2.97;;;;;;;30.50;24.75;101360.47;5084804;28;20614;-84
2021/06/07 06:40:39;;;;;;;9.02;2.78;;;;;;;30.13;24.96;101361.75;5075172;28;20145;-82
2021/06/07 06:43:07;;;;;;;6.65;3.20;;;;;;;27.32;28.89;101367.88;5101305;28;20056;-80
2021/06/07 06:45:38;;;;;;;5.72;2.60;;;;;;;28.90;26.72;101363.00;5080193;28;20050;-85
2021/06/07 06:48:06;;;;;;;10.77;2.90;;;;;;;29.62;26.04;101359.31;5072245;28;20407;-79
2021/06/07 06:50:36;;;;;;;7.00;2.90;;;;;;;30.26;24.79;101359.97;5081635;28;20548;-82
2021/06/07 06:53:05;;;;;;;6.53;2.90;;;;;;;31.13;24.07;101362.94;5087646;28;20052;-81
2021/06/07 06:55:33;;;;;;;6.53;2.67;;;;;;;28.88;26.72;101368.63;5071557;28;20043;-81
2021/06/07 06:58:00;;;;;;;14.15;3.60;;;;;;;27.86;28.34;101365.03;5084352;28;20194;-83
2021/06/07 07:00:28;;;;;;;7.13;3.15;;;;;;;29.83;26.25;101369.28;5089078;28;20104;-81
2021/06/07 07:02:56;;;;;;;7.90;3.22;;;;;;;28.67;27.46;101368.59;5090503;28;20081;-81
2021/06/07 07:05:23;;;;;;;11.00;3.38;;;;;;;28.67;27.61;101374.88;5078167;28;20453;-81
2021/06/07 07:07:51;;;;;;;8.23;2.78;;;;;;;30.48;25.33;101376.13;5089507;28;20043;-82
2021/06/07 07:10:19;;;;;;;7.80;2.90;;;;;;;27.34;28.85;101382.09;5059601;28;20052;-83
2021/06/07 07:12:47;;;;;;;5.07;2.90;;;;;;;30.48;24.88;101373.41;5090329;28;20046;-83
2021/06/07 07:15:15;;;;;;;8.88;3.38;;;;;;;28.85;27.65;101371.72;5095442;28;20071;-88
2021/06/07 07:17:46;;;;;;;13.00;4.00;;;;;;;31.15;24.50;101377.97;5080403;28;20086;-89
2021/06/07 07:20:14;;;;;;;8.75;3.22;;;;;;;32.40;23.02;101373.47;5087594;28;20410;-83
2021/06/07 07:22:42;;;;;;;7.45;2.67;;;;;;;33.54;21.33;101376.31;5086704;28;20055;-83
2021/06/07 07:25:14;;;;;;;12.45;3.80;;;;;;;33.04;21.81;101377.09;5090878;28;20056;-81
2021/06/07 07:27:42;;;;;;;9.25;3.33;;;;;;;34.95;20.03;101378.84;5106608;28;20050;-84
2021/06/07 07:30:17;;;;;;;12.85;3.50;;;;;;;33.53;20.96;101372.75;5081859;28;20136;-80
2021/06/07 07:32:47;;;;;;;5.22;2.85;;;;;;;33.06;21.20;101372.28;5089580;28;20124;-81
2021/06/07 07:35:15;;;;;;;7.50;3.20;;;;;;;32.97;21.39;101374.44;5074070;28;20108;-79
2021/06/07 07:37:42;;;;;;;8.82;3.65;;;;;;;31.26;22.99;101381.97;5086124;28;20083;-82
2021/06/07 07:40:11;;;;;;;9.25;3.05;;;;;;;31.53;22.68;101371.97;5091864;28;20039;-82
2021/06/07 07:42:39;;;;;;;6.53;2.75;;;;;;;34.39;19.70;101377.28;5059438;28;20142;-82
2021/06/07 07:45:08;;;;;;;11.15;3.10;;;;;;;29.76;24.59;101377.38;5087117;28;20149;-80
2021/06/07 07:47:35;;;;;;;9.20;3.85;;;;;;;31.10;23.06;101380.47;5077249;28;20488;-82
2021/06/07 07:50:09;;;;;;;9.57;2.75;;;;;;;29.97;24.38;101377.31;5080763;28;20065;-82
2021/06/07 07:52:41;;;;;;;7.95;2.83;;;;;;;30.49;24.32;101377.81;5103076;28;20139;-81
2021/06/07 07:55:13;;;;;;;4.95;2.67;;;;;;;30.81;23.91;101372.72;5077391;28;20138;-80
2021/06/07 07:57:41;;;;;;;9.07;2.78;;;;;;;32.73;20.98;101377.91;5087364;28;20043;-82
2021/06/07 08:00:12;;;;;;;6.22;2.88;;;;;;;33.63;20.24;101372.22;5094068;28;20059;-82
2021/06/07 08:02:39;;;;;;;6.05;2.70;;;;;;;35.36;18.29;101376.34;5094348;28;20047;-82
2021/06/07 08:05:08;;;;;;;4.43;2.65;;;;;;;35.46;18.27;101382.91;5091026;28;20044;-79
2021/06/07 08:07:38;;;;;;;11.85;3.58;;;;;;;34.98;18.72;101383.03;5095830;28;20039;-81
2021/06/07 08:10:07;;;;;;;13.48;3.40;;;;;;;35.35;18.29;101372.78;5095416;28;20068;-83
2021/06/07 08:12:34;;;;;;;14.57;3.40;;;;;;;35.06;18.64;101371.78;5083266;28;20066;-80
2021/06/07 08:15:05;;;;;;;9.25;2.90;;;;;;;33.63;20.67;101369.50;5098177;28;20043;-79
2021/06/07 08:17:32;;;;;;;8.35;3.65;;;;;;;33.13;20.70;101380.41;5099730;28;20119;-82
2021/06/07 08:20:00;;;;;;;11.13;2.97;;;;;;;31.60;22.52;101383.66;5101546;28;20479;-80
2021/06/07 08:22:29;;;;;;;6.28;3.17;;;;;;;33.92;19.82;101370.69;5099234;28;20135;-80
2021/06/07 08:24:56;;;;;;;5.97;2.70;;;;;;;33.83;20.27;101369.31;5103382;28;20044;-82
2021/06/07 08:27:24;;;;;;;7.30;3.05;;;;;;;32.80;20.59;101370.53;5121502;28;20063;-81
2021/06/07 08:29:51;;;;;;;14.02;3.25;;;;;;;30.89;22.88;101372.50;5097689;28;20067;-81
2021/06/07 08:32:20;;;;;;;10.63;3.33;;;;;;;26.52;28.87;101377.16;5093483;28;20082;-87
2021/06/07 08:34:50;;;;;;;9.27;3.00;;;;;;;27.50;28.03;101371.09;5109730;28;20048;-79
2021/06/07 08:37:18;;;;;;;14.98;4.05;;;;;;;27.32;28.33;101367.88;5113140;28;20529;-80
2021/06/07 08:39:48;;;;;;;15.02;6.75;;;;;;;27.81;27.80;101368.28;5098700;28;20052;-79
2021/06/07 08:42:15;;;;;;;8.75;3.22;;;;;;;26.58;28.70;101367.53;5099312;28;20071;-83
2021/06/07 08:44:48;;;;;;;6.20;2.65;;;;;;;25.95;30.16;101362.03;5103018;28;20047;-86
2021/06/07 08:47:16;;;;;;;4.85;2.67;;;;;;;25.68;30.70;101367.78;5101240;28;20127;-88
2021/06/07 08:49:46;;;;;;;7.72;2.85;;;;;;;25.13;31.89;101361.25;5103948;28;20050;-81
2021/06/07 08:52:14;;;;;;;5.72;2.63;;;;;;;25.48;31.37;101369.97;5102696;28;20055;-84
2021/06/07 08:54:42;;;;;;;7.20;2.50;;;;;;;26.23;30.64;101373.22;5105409;28;20048;-81
2021/06/07 08:57:09;;;;;;;6.95;2.65;;;;;;;26.01;30.67;101365.88;5092712;28;20075;-80
2021/06/07 08:59:40;;;;;;;12.45;2.83;;;;;;;25.38;31.28;101372.84;5109284;28;20044;-81
2021/06/07 09:02:07;;;;;;;6.47;2.80;;;;;;;25.19;31.20;101370.50;5084513;28;20040;-80
2021/06/07 09:04:49;;;;;;;8.93;3.05;;;;;;;25.18;31.48;101375.06;5096574;28;20039;-82
2021/06/07 09:07:18;;;;;;;11.73;3.42;;;;;;;25.22;31.45;101367.50;5094964;28;20504;-82
2021/06/07 09:10:09;;;;;;;8.80;3.13;;;;;;;24.55;32.99;101372.88;5091354;28;20514;-78
2021/06/07 09:12:51;;;;;;;8.05;2.50;;;;;;;24.96;32.56;101367.59;5092472;28;20411;-80
2021/06/07 09:15:40;;;;;;;10.05;3.65;;;;;;;24.31;32.89;101373.59;5114816;28;20058;-81
2021/06/07 09:18:11;;;;;;;9.52;2.80;;;;;;;24.38;33.59;101363.06;5067722;28;20047;-80
2021/06/07 09:20:40;;;;;;;3.40;2.47;;;;;;;24.16;33.28;101367.16;5068716;28;20055;-83
2021/06/07 09:23:14;;;;;;;8.82;2.60;;;;;;;24.66;32.67;101364.50;5107212;28;20048;-79
2021/06/07 09:25:45;;;;;;;5.97;2.90;;;;;;;24.22;32.17;101374.56;5083160;28;20399;-80
2021/06/07 09:28:22;;;;;;;5.05;2.78;;;;;;;24.51;32.18;101371.53;5087497;28;20055;-79
2021/06/07 09:31:10;;;;;;;4.93;2.70;;;;;;;25.39;31.11;101365.63;5072500;28;20139;-83
2021/06/07 09:33:47;;;;;;;6.53;3.15;;;;;;;25.71;31.00;101354.81;5107163;28;20043;-79
2021/06/07 09:36:43;;;;;;;5.55;2.58;;;;;;;25.33;29.49;101361.75;5109166;28;20090;-81
2021/06/07 09:39:25;;;;;;;5.82;2.47;;;;;;;25.20;30.43;101359.56;5087855;28;20202;-81
2021/06/07 09:41:58;;;;;;;7.07;2.72;;;;;;;25.48;30.44;101362.75;5087804;28;20064;-78
2021/06/07 09:44:46;;;;;;;5.20;2.50;;;;;;;25.29;31.09;101357.69;5090003;28;20055;-81
2021/06/07 09:47:16;;;;;;;4.70;2.25;;;;;;;25.05;30.84;101363.91;5063157;28;20063;-81
2021/06/07 09:49:53;;;;;;;7.70;2.00;;;;;;;25.10;30.72;101361.56;5089636;28;20040;-80
2021/06/07 09:52:26;;;;;;;6.85;2.50;;;;;;;25.66;29.74;101356.31;5107454;28;20103;-78
2021/06/07 09:55:10;;;;;;;6.38;2.50;;;;;;;25.68;29.42;101359.69;5089353;28;20195;-81
2021/06/07 09:57:47;;;;;;;4.93;2.42;;;;;;;25.45;29.90;101356.88;5086408;28;20594;-79
2021/06/07 10:00:34;;;;;;;3.85;2.40;;;;;;;25.37;30.49;101359.56;5065229;28;20158;-79
2021/06/07 10:03:50;;;;;;;4.72;2.63;;;;;;;25.28;30.33;101363.28;5085540;28;20404;-78
2021/06/07 10:06:25;;;;;;;6.75;2.75;;;;;;;25.84;29.38;101359.69;5098894;28;20060;-78
2021/06/07 10:08:58;;;;;;;3.83;2.55;;;;;;;25.67;29.33;101364.25;5076185;28;20047;-81
2021/06/07 10:11:29;;;;;;;16.08;2.67;;;;;;;25.53;30.23;101354.13;5076312;28;20135;-81
2021/06/07 10:14:05;;;;;;;7.50;2.60;;;;;;;25.77;29.17;101344.38;5103225;28;20047;-86
2021/06/07 10:16:32;;;;;;;2.40;2.05;;;;;;;26.06;27.95;101347.31;5093642;28;20105;-82
2021/06/07 10:19:03;;;;;;;3.47;2.13;;;;;;;26.23;27.71;101350.78;5087769;28;20122;-87
2021/06/07 10:21:31;;;;;;;9.05;2.63;;;;;;;26.01;27.00;101353.22;5092520;28;20147;-84
2021/06/07 10:23:58;;;;;;;5.38;2.30;;;;;;;26.21;27.19;101347.44;5109643;28;20136;-89
2021/06/07 10:26:26;;;;;;;7.82;2.33;;;;;;;26.36;27.54;101350.22;5077467;28;20051;-85
2021/06/07 10:28:55;;;;;;;2.90;2.17;;;;;;;26.45;26.87;101350.03;5079621;28;20066;-86
2021/06/07 10:31:25;;;;;;;5.80;2.03;;;;;;;26.39;27.22;101344.50;5076403;28;20089;-79
2021/06/07 10:33:56;;;;;;;5.47;2.70;;;;;;;25.98;27.88;101341.94;5079409;28;20059;-79
2021/06/07 10:36:26;;;;;;;5.78;2.45;;;;;;;26.36;27.52;101342.13;5051039;28;20130;-78
2021/06/07 10:39:18;;;;;;;4.03;2.40;;;;;;;26.22;27.43;101339.16;5108097;28;20404;-78
2021/06/07 10:41:46;;;;;;;14.15;3.03;;;;;;;26.17;28.29;101338.00;5094597;28;20054;-78
2021/06/07 10:44:13;;;;;;;5.15;2.42;;;;;;;26.60;28.04;101328.53;5083251;28;20144;-80
2021/06/07 10:46:42;;;;;;;7.13;2.63;;;;;;;26.47;26.64;101336.34;5082488;28;20123;-78
2021/06/07 10:49:40;;;;;;;6.88;2.33;;;;;;;26.40;26.96;101335.38;5088238;28;20057;-79
2021/06/07 10:52:09;;;;;;;7.10;2.72;;;;;;;26.67;27.05;101340.31;5086180;28;20135;-81
2021/06/07 10:54:38;;;;;;;11.57;2.80;;;;;;;25.86;27.57;101329.84;5107680;28;20124;-79
2021/06/07 10:57:27;;;;;;;7.25;2.58;;;;;;;25.62;28.24;101328.00;5072079;28;20495;-79
2021/06/07 10:59:56;;;;;;;4.82;3.47;;;;;;;26.00;27.78;101329.13;5088712;28;20054;-82
2021/06/07 11:02:26;;;;;;;7.00;2.40;;;;;;;26.03;27.86;101334.19;5086817;28;20134;-78
2021/06/07 11:05:12;;;;;;;14.18;2.42;;;;;;;26.16;27.18;101331.78;5108914;28;20119;-79
2021/06/07 11:07:43;;;;;;;10.18;2.60;;;;;;;26.52;27.49;101333.97;5100896;28;20065;-81
2021/06/07 11:10:40;;;;;;;6.07;2.63;;;;;;;26.61;27.31;101329.34;5087510;28;20138;-78
2021/06/07 11:13:33;;;;;;;4.75;2.38;;;;;;;26.67;26.70;101329.50;5071718;28;20040;-80
2021/06/07 11:16:03;;;;;;;3.85;2.10;;;;;;;26.31;28.04;101325.63;5091905;28;20039;-79
2021/06/07 11:18:35;;;;;;;3.00;2.53;;;;;;;26.25;27.48;101313.66;5075915;28;20584;-80
2021/06/07 11:21:05;;;;;;;5.80;2.55;;;;;;;25.97;27.73;101314.13;5056822;28;20050;-80
2021/06/07 11:23:36;;;;;;;7.55;2.67;;;;;;;26.24;27.09;101315.50;5109328;28;20093;-79
2021/06/07 11:26:12;;;;;;;3.95;2.22;;;;;;;25.93;26.79;101328.13;5093981;28;20062;-81
2021/06/07 11:28:51;;;;;;;7.85;2.40;;;;;;;26.07;26.89;101311.22;5060082;28;20139;-79
2021/06/07 11:31:18;;;;;;;9.02;2.55;;;;;;;26.59;26.36;101307.09;5061111;28;20243;-79
2021/06/07 11:33:55;;;;;;;5.07;2.03;;;;;;;26.70;26.61;101310.25;5076996;28;20055;-78
2021/06/07 11:36:36;;;;;;;4.25;2.42;;;;;;;26.27;26.95;101304.38;5078172;28;20075;-80